createdAt,value
2022-08-23T00:00:22.848Z,1.00
2022-08-23T00:00:47.143Z,1.00
2022-08-23T00:01:14.504Z,2.10
2022-08-23T00:01:42.717Z,4.00
2022-08-23T00:02:09.128Z,5.00
2022-08-23T00:02:46.220Z,6.40
2022-08-23T00:03:09.448Z,9.30
2022-08-23T00:03:32.498Z,11.90
2022-08-23T00:03:57.443Z,14.20
2022-08-23T00:04:32.105Z,16.00
2022-08-23T00:05:09.333Z,18.80
2022-08-23T00:05:32.935Z,20.00
2022-08-23T00:05:55.792Z,20.80
2022-08-23T00:06:18.763Z,22.60
2022-08-23T00:06:45.605Z,23.80
2022-08-23T00:07:11.883Z,25.60
2022-08-23T00:07:38.253Z,27.00
2022-08-23T00:08:02.205Z,27.60
2022-08-23T00:08:25.293Z,28.80
2022-08-23T00:08:49.219Z,30.00
2022-08-23T00:09:12.111Z,30.20
2022-08-23T00:09:35.051Z,30.40
2022-08-23T00:09:57.841Z,31.40
2022-08-23T00:10:21.596Z,30.60
2022-08-23T00:10:44.472Z,31.50
2022-08-23T00:11:07.612Z,32.80
2022-08-23T00:11:33.620Z,34.10
2022-08-23T00:12:03.431Z,34.40
2022-08-23T00:12:26.312Z,35.60
2022-08-23T00:12:49.137Z,36.60
2022-08-23T00:13:11.998Z,38.00
2022-08-23T00:13:47.781Z,39.30
2022-08-23T00:14:12.648Z,40.70
2022-08-23T00:14:37.198Z,43.80
2022-08-23T00:15:00.059Z,44.40
2022-08-23T00:15:23.105Z,44.40
2022-08-23T00:15:46.148Z,44.30
2022-08-23T00:16:09.483Z,44.90
2022-08-23T00:16:33.918Z,46.60
2022-08-23T00:16:57.049Z,47.10
2022-08-23T00:17:33.862Z,47.90
2022-08-23T00:17:57.439Z,48.80
2022-08-23T00:18:21.028Z,51.10
2022-08-23T00:18:47.695Z,51.30
2022-08-23T00:19:13.446Z,51.40
2022-08-23T00:19:36.956Z,52.10
2022-08-23T00:19:59.892Z,51.50
2022-08-23T00:20:22.832Z,52.40
2022-08-23T00:20:45.674Z,53.40
2022-08-23T00:21:08.427Z,54.60
2022-08-23T00:21:31.341Z,55.50
2022-08-23T00:21:55.115Z,56.60
2022-08-23T00:22:17.965Z,56.00
2022-08-23T00:22:42.651Z,54.70
2022-08-23T00:23:08.436Z,55.20
2022-08-23T00:23:31.461Z,55.80
2022-08-23T00:23:54.337Z,56.30
2022-08-23T00:24:17.337Z,57.00
2022-08-23T00:24:41.017Z,58.10
2022-08-23T00:25:04.382Z,58.50
2022-08-23T00:25:27.457Z,59.60
2022-08-23T00:25:50.347Z,60.50
2022-08-23T00:26:13.077Z,62.20
2022-08-23T00:26:57.972Z,62.10
2022-08-23T00:27:20.852Z,63.80
2022-08-23T00:27:44.244Z,64.70
2022-08-23T00:28:14.660Z,64.90
2022-08-23T00:28:41.353Z,65.00
2022-08-23T00:29:04.556Z,66.00
2022-08-23T00:29:31.513Z,66.70
2022-08-23T00:29:54.870Z,67.10
2022-08-23T00:30:18.022Z,67.90
2022-08-23T00:30:41.435Z,68.50
2022-08-23T00:31:04.775Z,69.00
2022-08-23T00:31:27.782Z,70.50
2022-08-23T00:31:52.135Z,70.40
2022-08-23T00:32:16.438Z,71.50
2022-08-23T00:32:39.449Z,72.30
2022-08-23T00:33:02.289Z,72.90
2022-08-23T00:33:25.229Z,73.70
2022-08-23T00:33:48.245Z,74.60
2022-08-23T00:34:14.288Z,74.50
2022-08-23T00:34:37.266Z,74.00
2022-08-23T00:35:00.701Z,74.30
2022-08-23T00:35:27.169Z,75.40
2022-08-23T00:35:50.485Z,76.70
2022-08-23T00:36:13.412Z,77.10
2022-08-23T00:36:36.119Z,78.10
2022-08-23T00:36:59.058Z,77.80
2022-08-23T00:37:22.782Z,77.40
2022-08-23T00:37:51.603Z,77.00
2022-08-23T00:38:31.716Z,77.60
2022-08-23T00:38:57.586Z,77.70
2022-08-23T00:39:20.512Z,78.20
2022-08-23T00:39:43.440Z,78.10
2022-08-23T00:40:09.109Z,80.00
2022-08-23T00:40:32.379Z,80.10
2022-08-23T00:40:56.571Z,80.10
2022-08-23T00:41:19.782Z,79.50
2022-08-23T00:41:42.686Z,79.80
2022-08-23T00:42:31.595Z,80.80
2022-08-23T00:43:15.430Z,81.60
2022-08-23T00:43:58.923Z,81.80
2022-08-23T00:44:43.104Z,83.80
2022-08-23T00:45:45.878Z,82.60
2022-08-23T00:46:31.289Z,83.80
2022-08-23T00:47:14.469Z,82.70
2022-08-23T00:47:40.369Z,83.90
2022-08-23T00:48:03.808Z,84.70
2022-08-23T00:48:26.634Z,84.20
2022-08-23T00:48:49.546Z,83.10
2022-08-23T00:49:12.631Z,82.70
2022-08-23T00:49:36.252Z,83.00
2022-08-23T00:50:03.294Z,83.40
2022-08-23T00:50:45.342Z,83.60
2022-08-23T00:51:09.720Z,82.80
2022-08-23T00:51:41.324Z,83.60
2022-08-23T00:52:20.727Z,82.70
2022-08-23T00:52:48.872Z,82.70
2022-08-23T00:53:15.313Z,83.20
2022-08-23T00:53:40.718Z,83.20
2022-08-23T00:54:06.275Z,83.90
2022-08-23T00:54:29.406Z,84.30
2022-08-23T00:54:53.644Z,83.50
2022-08-23T00:55:17.034Z,83.70
2022-08-23T00:55:39.931Z,85.40
2022-08-23T00:56:04.225Z,86.60
2022-08-23T00:56:28.397Z,87.70
2022-08-23T00:56:53.230Z,88.50
2022-08-23T00:57:18.152Z,89.60
2022-08-23T00:57:41.105Z,90.00
2022-08-23T00:58:09.355Z,90.50
2022-08-23T00:58:32.285Z,90.80
2022-08-23T00:58:55.032Z,91.40
2022-08-23T00:59:19.715Z,91.80
2022-08-23T00:59:42.695Z,91.90
2022-08-23T01:00:07.201Z,92.30
2022-08-23T01:00:30.462Z,92.40
2022-08-23T01:00:54.477Z,92.60
2022-08-23T01:01:17.816Z,92.70
2022-08-23T01:01:42.699Z,92.60
2022-08-23T01:02:07.111Z,92.60
2022-08-23T01:02:30.036Z,92.60
2022-08-23T01:02:53.461Z,92.70
2022-08-23T01:03:16.371Z,92.90
2022-08-23T01:03:42.796Z,92.80
2022-08-23T01:04:06.057Z,93.00
2022-08-23T01:04:33.431Z,92.80
2022-08-23T01:04:57.336Z,93.10
2022-08-23T01:05:20.721Z,93.00
2022-08-23T01:05:46.901Z,93.30
2022-08-23T01:06:11.946Z,93.60
2022-08-23T01:06:38.656Z,93.80
2022-08-23T01:07:04.910Z,93.60
2022-08-23T01:07:35.325Z,93.70
2022-08-23T01:07:59.133Z,94.00
2022-08-23T01:08:23.920Z,94.50
2022-08-23T01:08:48.740Z,94.60
2022-08-23T01:09:13.786Z,94.50
2022-08-23T01:09:36.545Z,94.40
2022-08-23T01:10:02.480Z,94.60
2022-08-23T01:10:28.750Z,94.40
2022-08-23T01:10:55.131Z,94.90
2022-08-23T01:11:21.846Z,95.30
2022-08-23T01:11:48.563Z,95.30
2022-08-23T01:12:15.993Z,95.40
2022-08-23T01:12:43.649Z,95.90
2022-08-23T01:13:09.537Z,96.00
2022-08-23T01:13:36.416Z,96.00
2022-08-23T01:14:01.985Z,96.50
2022-08-23T01:14:27.961Z,96.70
2022-08-23T01:14:54.482Z,96.30
2022-08-23T01:15:20.236Z,96.10
2022-08-23T01:15:46.136Z,96.50
2022-08-23T01:16:11.300Z,96.70
2022-08-23T01:16:36.869Z,97.00
2022-08-23T01:17:04.237Z,97.10
2022-08-23T01:17:31.260Z,96.70
2022-08-23T01:17:57.347Z,96.90
2022-08-23T01:18:26.228Z,96.90
2022-08-23T01:18:49.162Z,97.20
2022-08-23T01:19:14.648Z,97.30
2022-08-23T01:19:39.313Z,97.00
2022-08-23T01:20:04.828Z,96.70
2022-08-23T01:20:28.767Z,96.90
2022-08-23T01:20:54.903Z,97.30
2022-08-23T01:21:22.154Z,97.00
2022-08-23T01:21:47.424Z,96.80
2022-08-23T01:22:15.928Z,97.00
2022-08-23T01:22:42.093Z,96.70
2022-08-23T01:23:08.374Z,96.40
2022-08-23T01:23:36.880Z,96.20
2022-08-23T01:24:01.139Z,96.10
2022-08-23T01:25:05.800Z,96.20
2022-08-23T01:25:09.373Z,96.50
2022-08-23T01:25:32.968Z,97.00
2022-08-23T01:25:55.850Z,96.60
2022-08-23T01:26:21.694Z,96.50
2022-08-23T01:26:45.278Z,96.40
2022-08-23T01:27:08.103Z,96.40
2022-08-23T01:27:31.470Z,96.20
2022-08-23T01:27:57.476Z,96.30
2022-08-23T01:28:20.565Z,96.70
2022-08-23T01:28:45.834Z,96.30
2022-08-23T01:29:09.108Z,96.20
2022-08-23T01:29:32.194Z,96.70
2022-08-23T01:29:55.118Z,96.50
2022-08-23T01:30:19.588Z,95.80
2022-08-23T01:30:42.623Z,95.50
2022-08-23T01:31:06.579Z,95.40
2022-08-23T01:31:29.689Z,95.00
2022-08-23T01:31:53.443Z,94.90
2022-08-23T01:32:16.875Z,94.80
2022-08-23T01:32:43.873Z,94.80
2022-08-23T01:33:07.033Z,94.20
2022-08-23T01:33:29.986Z,93.70
2022-08-23T01:33:56.683Z,93.70
2022-08-23T01:34:19.473Z,93.90
2022-08-23T01:34:44.761Z,93.90
2022-08-23T01:35:14.604Z,93.10
2022-08-23T01:35:38.992Z,93.20
2022-08-23T01:36:01.897Z,93.10
2022-08-23T01:36:27.433Z,92.80
2022-08-23T01:36:50.202Z,92.30
2022-08-23T01:37:12.959Z,92.10
2022-08-23T01:37:35.852Z,92.30
2022-08-23T01:37:58.852Z,92.60
2022-08-23T01:38:22.619Z,92.00
2022-08-23T01:38:47.268Z,91.60
2022-08-23T01:39:10.168Z,91.40
2022-08-23T01:39:33.343Z,91.80
2022-08-23T01:39:56.196Z,92.90
2022-08-23T01:40:19.351Z,92.60
2022-08-23T01:40:42.217Z,91.30
2022-08-23T01:41:07.113Z,91.50
2022-08-23T01:41:30.111Z,91.60
2022-08-23T01:41:52.939Z,91.70
2022-08-23T01:42:15.866Z,91.40
2022-08-23T01:42:41.863Z,91.10
2022-08-23T01:43:04.895Z,90.30
2022-08-23T01:43:28.005Z,91.30
2022-08-23T01:43:52.232Z,91.70
2022-08-23T01:44:15.100Z,92.30
2022-08-23T01:44:38.310Z,92.80
2022-08-23T01:45:01.470Z,93.30
2022-08-23T01:45:24.370Z,93.90
2022-08-23T01:45:47.619Z,94.20
2022-08-23T01:46:13.226Z,94.00
2022-08-23T01:46:36.735Z,94.20
2022-08-23T01:47:02.496Z,94.30
2022-08-23T01:47:25.507Z,93.80
2022-08-23T01:47:48.391Z,94.20
2022-08-23T01:48:11.376Z,94.20
2022-08-23T01:48:34.172Z,94.20
2022-08-23T01:48:58.807Z,94.80
2022-08-23T01:49:24.419Z,95.40
2022-08-23T01:49:47.728Z,95.70
2022-08-23T01:50:11.427Z,95.40
2022-08-23T01:50:34.448Z,94.90
2022-08-23T01:50:57.410Z,94.70
2022-08-23T01:51:20.466Z,94.70
2022-08-23T01:51:43.335Z,95.10
2022-08-23T01:52:06.514Z,95.30
2022-08-23T01:52:29.376Z,94.80
2022-08-23T01:52:52.373Z,94.80
2022-08-23T01:53:15.454Z,94.60
2022-08-23T01:53:38.862Z,94.60
2022-08-23T01:54:03.272Z,94.90
2022-08-23T01:54:26.176Z,94.90
2022-08-23T01:54:49.128Z,94.80
2022-08-23T01:55:12.060Z,94.90
2022-08-23T01:55:34.975Z,94.90
2022-08-23T01:55:57.952Z,94.90
2022-08-23T01:56:21.456Z,95.00
2022-08-23T01:57:01.447Z,95.40
2022-08-23T01:57:24.368Z,95.70
2022-08-23T01:57:49.528Z,95.20
2022-08-23T01:58:13.327Z,95.00
2022-08-23T01:58:36.366Z,95.70
2022-08-23T01:58:59.137Z,95.70
2022-08-23T01:59:22.918Z,95.40
2022-08-23T01:59:45.846Z,95.60
2022-08-23T02:00:10.100Z,95.20
2022-08-23T02:00:38.753Z,95.20
2022-08-23T02:01:02.291Z,94.70
2022-08-23T02:01:25.118Z,94.70
2022-08-23T02:01:51.526Z,95.30
2022-08-23T02:02:15.900Z,95.30
2022-08-23T02:02:39.280Z,95.40
2022-08-23T02:03:02.961Z,95.00
2022-08-23T02:03:25.743Z,95.00
2022-08-23T02:03:48.707Z,95.00
2022-08-23T02:04:23.837Z,93.80
2022-08-23T02:04:46.949Z,93.60
2022-08-23T02:05:10.523Z,93.50
2022-08-23T02:05:34.802Z,94.00
2022-08-23T02:05:58.620Z,94.40
2022-08-23T02:06:21.643Z,94.00
2022-08-23T02:06:44.461Z,93.50
2022-08-23T02:07:10.114Z,93.70
2022-08-23T02:07:33.200Z,93.90
2022-08-23T02:07:56.370Z,94.20
2022-08-23T02:08:37.977Z,94.80
2022-08-23T02:09:03.660Z,95.30
2022-08-23T02:09:26.817Z,95.50
2022-08-23T02:09:52.578Z,96.00
2022-08-23T02:10:15.774Z,96.30
2022-08-23T02:10:38.603Z,96.60
2022-08-23T02:11:01.869Z,96.40
2022-08-23T02:11:25.659Z,95.90
2022-08-23T02:11:48.429Z,96.10
2022-08-23T02:12:11.390Z,96.30
2022-08-23T02:12:34.130Z,96.60
2022-08-23T02:12:57.157Z,96.30
2022-08-23T02:13:20.211Z,96.10
2022-08-23T02:13:43.254Z,95.30
2022-08-23T02:14:08.462Z,95.50
2022-08-23T02:14:31.575Z,95.60
2022-08-23T02:14:54.385Z,95.40
2022-08-23T02:15:17.585Z,94.80
2022-08-23T02:15:43.091Z,94.60
2022-08-23T02:16:06.871Z,94.40
2022-08-23T02:16:33.815Z,94.20
2022-08-23T02:17:02.835Z,93.90
2022-08-23T02:17:30.524Z,93.90
2022-08-23T02:17:54.996Z,94.60
2022-08-23T02:18:18.487Z,94.60
2022-08-23T02:18:41.294Z,94.30
2022-08-23T02:19:04.847Z,94.50
2022-08-23T02:19:28.143Z,94.70
2022-08-23T02:19:51.245Z,93.80
2022-08-23T02:20:14.606Z,92.30
2022-08-23T02:20:37.531Z,91.60
2022-08-23T02:21:00.731Z,91.60
2022-08-23T02:21:23.585Z,91.20
2022-08-23T02:21:47.271Z,90.60
2022-08-23T02:22:10.152Z,90.70
2022-08-23T02:22:37.702Z,91.20
2022-08-23T02:23:01.119Z,92.30
2022-08-23T02:23:24.241Z,93.00
2022-08-23T02:23:47.186Z,93.40
2022-08-23T02:24:12.567Z,93.60
2022-08-23T02:24:35.765Z,94.20
2022-08-23T02:24:58.564Z,94.60
2022-08-23T02:25:21.445Z,94.70
2022-08-23T02:25:44.535Z,94.40
2022-08-23T02:26:07.369Z,94.20
2022-08-23T02:26:31.585Z,94.40
2022-08-23T02:26:57.190Z,94.20
2022-08-23T02:27:20.416Z,93.70
2022-08-23T02:27:44.240Z,92.30
2022-08-23T02:28:07.447Z,91.40
2022-08-23T02:28:30.330Z,91.20
2022-08-23T02:28:53.331Z,91.40
2022-08-23T02:29:20.810Z,91.20
2022-08-23T02:29:46.004Z,92.00
2022-08-23T02:30:09.808Z,91.90
2022-08-23T02:30:32.719Z,92.50
2022-08-23T02:30:56.729Z,93.30
2022-08-23T02:31:21.364Z,94.10
2022-08-23T02:31:47.922Z,94.70
2022-08-23T02:32:10.943Z,95.00
2022-08-23T02:32:34.762Z,95.10
2022-08-23T02:32:57.592Z,95.30
2022-08-23T02:33:22.451Z,95.20
2022-08-23T02:33:45.246Z,95.10
2022-08-23T02:34:08.192Z,95.40
2022-08-23T02:34:31.827Z,95.50
2022-08-23T02:35:05.262Z,95.40
2022-08-23T02:35:29.056Z,95.50
2022-08-23T02:35:51.972Z,95.80
2022-08-23T02:36:14.868Z,96.00
2022-08-23T02:36:38.301Z,96.20
2022-08-23T02:37:01.122Z,96.30
2022-08-23T02:37:24.037Z,95.10
2022-08-23T02:37:46.792Z,95.00
2022-08-23T02:38:11.901Z,95.50
2022-08-23T02:38:34.857Z,95.00
2022-08-23T02:38:57.807Z,94.60
2022-08-23T02:39:22.222Z,94.00
2022-08-23T02:39:45.284Z,94.10
2022-08-23T02:40:09.919Z,95.00
2022-08-23T02:40:33.031Z,95.20
2022-08-23T02:41:01.125Z,95.30
2022-08-23T02:41:24.329Z,95.70
2022-08-23T02:41:47.336Z,95.90
2022-08-23T02:42:11.825Z,95.80
2022-08-23T02:42:34.856Z,95.50
2022-08-23T02:42:57.637Z,95.30
2022-08-23T02:43:20.557Z,94.70
2022-08-23T02:43:43.328Z,94.30
2022-08-23T02:44:06.286Z,94.00
2022-08-23T02:44:34.866Z,93.50
2022-08-23T02:44:58.416Z,92.90
2022-08-23T02:45:21.896Z,93.30
2022-08-23T02:45:45.521Z,94.00
2022-08-23T02:46:08.628Z,94.10
2022-08-23T02:46:31.600Z,94.70
2022-08-23T02:46:54.823Z,95.10
2022-08-23T02:47:18.335Z,95.30
2022-08-23T02:47:41.076Z,95.10
2022-08-23T02:48:04.992Z,94.90
2022-08-23T02:48:27.826Z,95.70
2022-08-23T02:48:51.060Z,96.30
2022-08-23T02:49:13.885Z,96.60
2022-08-23T02:49:37.033Z,96.40
2022-08-23T02:49:59.915Z,96.50
2022-08-23T02:50:22.799Z,96.10
2022-08-23T02:50:46.800Z,95.30
2022-08-23T02:51:10.091Z,94.60
2022-08-23T02:51:32.989Z,94.50
2022-08-23T02:51:55.934Z,94.50
2022-08-23T02:52:19.009Z,94.60
2022-08-23T02:52:41.975Z,94.10
2022-08-23T02:53:04.965Z,93.90
2022-08-23T02:53:27.896Z,94.00
2022-08-23T02:53:50.676Z,93.60
2022-08-23T02:54:13.519Z,93.70
2022-08-23T02:54:37.988Z,94.50
2022-08-23T02:55:00.797Z,94.30
2022-08-23T02:55:23.816Z,94.30
2022-08-23T02:55:46.873Z,94.40
2022-08-23T02:56:17.096Z,94.70
2022-08-23T02:56:44.948Z,94.70
2022-08-23T02:57:07.988Z,95.10
2022-08-23T02:57:31.495Z,95.60
2022-08-23T02:57:54.562Z,96.10
2022-08-23T02:58:17.553Z,95.80
2022-08-23T02:58:40.578Z,96.10
2022-08-23T02:59:09.028Z,96.10
2022-08-23T02:59:31.820Z,96.20
2022-08-23T02:59:54.813Z,95.40
2022-08-23T03:00:17.998Z,94.30
2022-08-23T03:00:40.833Z,94.00
2022-08-23T03:01:03.828Z,93.80
2022-08-23T03:01:27.879Z,93.70
2022-08-23T03:01:51.308Z,94.10
2022-08-23T03:02:14.408Z,94.10
2022-08-23T03:02:37.379Z,94.70
2022-08-23T03:03:00.451Z,94.80
2022-08-23T03:03:23.252Z,95.00
2022-08-23T03:03:46.767Z,95.10
2022-08-23T03:04:12.482Z,94.90
2022-08-23T03:04:35.602Z,95.10
2022-08-23T03:04:58.442Z,95.50
2022-08-23T03:05:21.346Z,95.80
2022-08-23T03:05:44.294Z,96.30
2022-08-23T03:06:24.806Z,96.70
2022-08-23T03:06:48.997Z,97.10
2022-08-23T03:07:11.793Z,97.70
2022-08-23T03:07:34.801Z,98.00
2022-08-23T03:08:00.991Z,98.10
2022-08-23T03:08:25.172Z,98.20
2022-08-23T03:08:47.977Z,98.30
2022-08-23T03:09:11.580Z,98.30
2022-08-23T03:09:34.322Z,98.50
2022-08-23T03:09:59.297Z,99.20
2022-08-23T03:10:22.492Z,99.20
2022-08-23T03:10:45.501Z,99.30
2022-08-23T03:11:12.241Z,99.30
2022-08-23T03:11:35.459Z,99.20
2022-08-23T03:11:58.356Z,99.30
2022-08-23T03:12:21.220Z,99.20
2022-08-23T03:12:44.469Z,99.40
2022-08-23T03:13:07.846Z,99.10
2022-08-23T03:13:31.438Z,97.90
2022-08-23T03:13:56.383Z,97.80
2022-08-23T03:14:19.178Z,97.80
2022-08-23T03:14:42.218Z,98.00
2022-08-23T03:15:07.278Z,98.20
2022-08-23T03:15:30.528Z,98.30
2022-08-23T03:15:54.164Z,98.20
2022-08-23T03:16:17.489Z,98.10
2022-08-23T03:16:40.728Z,98.00
2022-08-23T03:17:04.077Z,97.60
2022-08-23T03:17:27.024Z,97.30
2022-08-23T03:17:49.986Z,96.60
2022-08-23T03:18:13.341Z,95.90
2022-08-23T03:18:36.216Z,95.60
2022-08-23T03:18:59.256Z,95.70
2022-08-23T03:19:22.150Z,95.90
2022-08-23T03:19:45.155Z,96.20
2022-08-23T03:20:10.010Z,96.40
2022-08-23T03:20:33.504Z,97.20
2022-08-23T03:20:56.389Z,98.40
2022-08-23T03:21:20.284Z,98.60
2022-08-23T03:21:43.524Z,98.80
2022-08-23T03:22:07.457Z,98.50
2022-08-23T03:22:30.293Z,98.50
2022-08-23T03:22:54.623Z,98.20
2022-08-23T03:23:17.708Z,97.70
2022-08-23T03:23:40.487Z,98.00
2022-08-23T03:24:08.077Z,98.20
2022-08-23T03:24:33.148Z,98.60
2022-08-23T03:24:55.918Z,98.30
2022-08-23T03:25:20.307Z,98.40
2022-08-23T03:25:43.172Z,98.50
2022-08-23T03:26:07.482Z,98.70
2022-08-23T03:26:30.532Z,99.30
2022-08-23T03:26:53.521Z,99.40
2022-08-23T03:27:16.748Z,99.40
2022-08-23T03:27:44.860Z,99.10
2022-08-23T03:28:08.087Z,99.20
2022-08-23T03:28:31.188Z,99.20
2022-08-23T03:28:56.684Z,99.50
2022-08-23T03:29:19.919Z,99.70
2022-08-23T03:29:42.703Z,99.80
2022-08-23T03:30:06.926Z,99.90
2022-08-23T03:30:36.794Z,99.90
2022-08-23T03:30:59.733Z,99.90
2022-08-23T03:31:22.580Z,99.90
2022-08-23T03:31:45.817Z,99.90
2022-08-23T03:32:08.718Z,99.90
2022-08-23T03:32:32.960Z,99.90
2022-08-23T03:32:56.563Z,99.70
2022-08-23T03:33:19.456Z,99.60
2022-08-23T03:33:42.348Z,99.70
2022-08-23T03:34:05.653Z,99.60
2022-08-23T03:34:28.389Z,99.70
2022-08-23T03:34:51.209Z,99.40
2022-08-23T03:35:15.421Z,99.00
2022-08-23T03:35:38.558Z,98.20
2022-08-23T03:36:01.508Z,98.20
2022-08-23T03:36:28.206Z,97.10
2022-08-23T03:36:51.170Z,96.50
2022-08-23T03:37:14.308Z,96.10
2022-08-23T03:37:37.394Z,96.40
2022-08-23T03:38:04.644Z,96.50
2022-08-23T03:38:27.614Z,97.20
2022-08-23T03:38:50.704Z,96.70
2022-08-23T03:39:13.616Z,96.50
2022-08-23T03:39:36.790Z,96.40
2022-08-23T03:40:00.336Z,96.60
2022-08-23T03:40:25.022Z,96.80
2022-08-23T03:40:50.823Z,96.90
2022-08-23T03:41:13.928Z,96.70
2022-08-23T03:41:36.819Z,96.80
2022-08-23T03:41:59.774Z,97.60
2022-08-23T03:42:24.025Z,98.00
2022-08-23T03:42:54.224Z,97.70
2022-08-23T03:43:17.215Z,97.30
2022-08-23T03:43:40.064Z,97.10
2022-08-23T03:44:04.024Z,97.10
2022-08-23T03:44:26.955Z,97.00
2022-08-23T03:44:49.821Z,96.90
2022-08-23T03:45:20.120Z,97.10
2022-08-23T03:45:43.109Z,97.10
2022-08-23T03:46:06.296Z,97.50
2022-08-23T03:46:33.790Z,97.90
2022-08-23T03:46:56.949Z,98.00
2022-08-23T03:47:19.904Z,97.80
2022-08-23T03:47:46.777Z,97.80
2022-08-23T03:48:09.642Z,97.70
2022-08-23T03:48:32.556Z,96.90
2022-08-23T03:49:00.536Z,97.30
2022-08-23T03:49:23.486Z,96.90
2022-08-23T03:49:46.256Z,96.30
2022-08-23T03:50:09.838Z,96.40
2022-08-23T03:50:32.597Z,96.40
2022-08-23T03:50:55.422Z,96.10
2022-08-23T03:51:18.736Z,95.30
2022-08-23T03:51:41.707Z,94.40
2022-08-23T03:52:04.669Z,93.70
2022-08-23T03:52:27.429Z,93.50
2022-08-23T03:52:50.283Z,93.60
2022-08-23T03:53:13.187Z,93.60
2022-08-23T03:53:36.105Z,93.60
2022-08-23T03:53:59.273Z,93.80
2022-08-23T03:54:22.831Z,93.20
2022-08-23T03:54:45.982Z,93.80
2022-08-23T03:55:08.968Z,93.00
2022-08-23T03:55:33.661Z,92.20
2022-08-23T03:56:05.327Z,90.30
2022-08-23T03:56:30.519Z,90.10
2022-08-23T03:56:54.870Z,90.00
2022-08-23T03:57:17.721Z,89.80
2022-08-23T03:57:40.552Z,88.70
2022-08-23T03:58:03.541Z,89.40
2022-08-23T03:58:28.360Z,87.30
2022-08-23T03:58:51.179Z,85.70
2022-08-23T03:59:14.314Z,86.00
2022-08-23T03:59:38.629Z,87.70
2022-08-23T04:00:01.488Z,90.20
2022-08-23T04:00:24.389Z,89.10
2022-08-23T04:00:47.233Z,89.40
2022-08-23T04:01:09.989Z,90.10
2022-08-23T04:01:33.129Z,87.40
2022-08-23T04:01:56.287Z,87.20
2022-08-23T04:02:19.198Z,86.00
2022-08-23T04:02:42.323Z,87.30
2022-08-23T04:03:05.344Z,87.40
2022-08-23T04:03:28.148Z,87.10
2022-08-23T04:03:51.425Z,85.80
2022-08-23T04:04:14.811Z,85.70
2022-08-23T04:04:40.705Z,84.00
2022-08-23T04:05:06.129Z,83.40
2022-08-23T04:05:29.045Z,83.00
2022-08-23T04:05:52.759Z,83.10
2022-08-23T04:06:16.279Z,83.00
2022-08-23T04:06:39.445Z,84.60
2022-08-23T04:07:02.634Z,84.90
2022-08-23T04:07:26.029Z,85.20
2022-08-23T04:07:49.015Z,85.10
2022-08-23T04:08:11.898Z,86.10
2022-08-23T04:08:34.729Z,86.40
2022-08-23T04:08:57.694Z,85.10
2022-08-23T04:09:20.724Z,83.60
2022-08-23T04:09:47.098Z,82.40
2022-08-23T04:10:13.999Z,83.70
2022-08-23T04:10:39.455Z,83.80
2022-08-23T04:11:02.454Z,86.30
2022-08-23T04:11:25.643Z,84.90
2022-08-23T04:11:49.018Z,84.50
2022-08-23T04:12:17.640Z,84.90
2022-08-23T04:12:41.033Z,86.00
2022-08-23T04:13:03.883Z,85.90
2022-08-23T04:13:28.857Z,85.30
2022-08-23T04:13:51.890Z,85.70
2022-08-23T04:14:14.650Z,86.00
2022-08-23T04:14:40.289Z,82.80
2022-08-23T04:15:03.583Z,81.80
2022-08-23T04:15:26.454Z,81.90
2022-08-23T04:15:50.149Z,83.30
2022-08-23T04:16:15.475Z,84.50
2022-08-23T04:16:39.030Z,85.80
2022-08-23T04:17:02.015Z,84.70
2022-08-23T04:17:25.335Z,83.90
2022-08-23T04:17:48.255Z,85.40
2022-08-23T04:18:11.135Z,86.80
2022-08-23T04:18:33.940Z,87.00
2022-08-23T04:18:57.528Z,88.00
2022-08-23T04:19:20.485Z,88.50
2022-08-23T04:19:44.910Z,86.90
2022-08-23T04:20:09.533Z,85.80
2022-08-23T04:20:32.680Z,85.70
2022-08-23T04:20:55.750Z,86.90
2022-08-23T04:21:19.849Z,88.40
2022-08-23T04:21:44.435Z,90.60
2022-08-23T04:22:10.303Z,90.50
2022-08-23T04:22:33.964Z,90.40
2022-08-23T04:22:57.235Z,91.40
2022-08-23T04:23:20.560Z,92.30
2022-08-23T04:23:43.739Z,92.90
2022-08-23T04:24:06.923Z,92.90
2022-08-23T04:24:32.890Z,92.60
2022-08-23T04:24:56.314Z,92.60
2022-08-23T04:25:33.889Z,92.00
2022-08-23T04:26:00.166Z,92.50
2022-08-23T04:26:30.093Z,93.40
2022-08-23T04:26:53.155Z,93.30
2022-08-23T04:27:16.050Z,93.80
2022-08-23T04:27:38.805Z,94.00
2022-08-23T04:28:01.812Z,93.80
2022-08-23T04:28:25.206Z,93.50
2022-08-23T04:28:48.140Z,93.60
2022-08-23T04:29:11.910Z,92.80
2022-08-23T04:29:47.941Z,92.80
2022-08-23T04:30:12.560Z,93.00
2022-08-23T04:30:36.874Z,93.30
2022-08-23T04:31:01.675Z,93.00
2022-08-23T04:31:26.965Z,91.40
2022-08-23T04:31:51.259Z,87.10
2022-08-23T04:32:26.557Z,85.40
2022-08-23T04:32:51.282Z,85.60
2022-08-23T04:33:17.861Z,88.90
2022-08-23T04:33:41.439Z,89.20
2022-08-23T04:34:04.405Z,90.20
2022-08-23T04:34:30.293Z,89.80
2022-08-23T04:34:53.205Z,90.40
2022-08-23T04:35:17.025Z,91.10
2022-08-23T04:35:41.670Z,91.20
2022-08-23T04:36:04.655Z,90.80
2022-08-23T04:36:34.582Z,91.00
2022-08-23T04:36:57.615Z,91.60
2022-08-23T04:37:20.631Z,90.40
2022-08-23T04:37:44.480Z,90.60
2022-08-23T04:38:24.210Z,89.50
2022-08-23T04:38:48.344Z,87.90
2022-08-23T04:39:11.328Z,88.80
2022-08-23T04:39:54.287Z,88.90
2022-08-23T04:40:36.158Z,90.10
2022-08-23T04:41:19.207Z,86.40
2022-08-23T04:42:00.873Z,86.00
2022-08-23T04:42:23.903Z,84.90
2022-08-23T04:42:46.827Z,83.70
2022-08-23T04:43:09.965Z,84.40
2022-08-23T04:43:32.805Z,83.20
2022-08-23T04:43:57.065Z,84.30
2022-08-23T04:44:20.057Z,82.90
2022-08-23T04:44:43.033Z,81.60
2022-08-23T04:45:07.618Z,79.70
2022-08-23T04:45:31.783Z,78.30
2022-08-23T04:45:54.750Z,77.40
2022-08-23T04:46:17.694Z,76.00
2022-08-23T04:46:41.240Z,76.70
2022-08-23T04:47:04.239Z,74.70
2022-08-23T04:47:27.354Z,71.70
2022-08-23T04:47:50.564Z,62.90
2022-08-23T04:48:14.044Z,55.70
2022-08-23T04:48:37.106Z,50.40
2022-08-23T04:48:59.987Z,51.00
2022-08-23T04:49:24.510Z,52.70
2022-08-23T04:49:47.495Z,54.40
2022-08-23T04:50:10.402Z,56.00
2022-08-23T04:50:33.465Z,57.40
2022-08-23T04:50:56.915Z,57.40
2022-08-23T04:51:19.830Z,56.50
2022-08-23T04:51:42.660Z,56.30
2022-08-23T04:52:19.458Z,56.00
2022-08-23T04:52:43.151Z,49.00
2022-08-23T04:53:06.125Z,51.10
2022-08-23T04:53:35.393Z,53.30
2022-08-23T04:53:58.575Z,52.40
2022-08-23T04:54:22.668Z,52.80
2022-08-23T04:54:46.989Z,51.70
2022-08-23T04:55:10.016Z,50.00
2022-08-23T04:55:35.483Z,51.90
2022-08-23T04:56:02.469Z,54.00
2022-08-23T04:56:25.364Z,55.80
2022-08-23T04:56:50.893Z,59.60
2022-08-23T04:57:15.750Z,61.60
2022-08-23T04:57:38.545Z,63.10
2022-08-23T04:58:01.799Z,65.70
2022-08-23T04:58:25.494Z,66.30
2022-08-23T04:58:48.404Z,63.50
2022-08-23T04:59:13.172Z,63.50
2022-08-23T04:59:36.359Z,64.90
2022-08-23T04:59:59.938Z,64.70
2022-08-23T05:00:27.950Z,65.40
2022-08-23T05:00:51.872Z,64.30
2022-08-23T05:01:18.395Z,62.00
2022-08-23T05:01:42.928Z,61.70
2022-08-23T05:02:06.297Z,65.20
2022-08-23T05:02:29.422Z,69.10
2022-08-23T05:02:53.365Z,69.40
2022-08-23T05:03:16.156Z,71.40
2022-08-23T05:03:40.073Z,72.80
2022-08-23T05:04:03.274Z,74.70
2022-08-23T05:04:26.173Z,77.10
2022-08-23T05:04:48.963Z,76.90
2022-08-23T05:05:12.033Z,76.00
2022-08-23T05:05:34.903Z,75.10
2022-08-23T05:05:58.347Z,74.20
2022-08-23T05:06:21.333Z,77.70
2022-08-23T05:06:44.241Z,75.70
2022-08-23T05:07:09.326Z,73.50
2022-08-23T05:07:42.637Z,71.40
2022-08-23T05:08:06.233Z,69.60
2022-08-23T05:08:29.193Z,64.60
2022-08-23T05:08:52.068Z,65.90
2022-08-23T05:09:18.522Z,66.40
2022-08-23T05:09:43.479Z,62.10
2022-08-23T05:10:07.534Z,57.70
2022-08-23T05:10:30.470Z,53.50
2022-08-23T05:10:53.368Z,51.40
2022-08-23T05:11:19.342Z,53.40
2022-08-23T05:11:42.384Z,52.30
2022-08-23T05:12:05.629Z,57.60
2022-08-23T05:12:29.724Z,61.10
2022-08-23T05:12:52.723Z,54.90
2022-08-23T05:13:15.578Z,50.90
2022-08-23T05:13:38.754Z,48.00
2022-08-23T05:14:02.149Z,47.20
2022-08-23T05:14:25.038Z,49.70
2022-08-23T05:14:48.245Z,51.30
2022-08-23T05:15:12.248Z,53.00
2022-08-23T05:15:35.146Z,54.00
2022-08-23T05:15:58.263Z,56.60
2022-08-23T05:16:21.916Z,52.00
2022-08-23T05:16:44.982Z,46.30
2022-08-23T05:17:08.378Z,43.20
2022-08-23T05:17:32.217Z,38.80
2022-08-23T05:17:55.365Z,37.40